createdAt,value
2018-05-25T07:29:50.571Z,52.8
2018-05-25T07:30:40.913Z,52.9
2018-05-25T07:31:30.412Z,53
2018-05-25T07:32:21.086Z,53.1
2018-05-25T07:33:10.909Z,53.3
2018-05-25T07:34:00.918Z,53.4
2018-05-25T07:34:50.968Z,53.6
2018-05-25T07:35:40.604Z,53.8
2018-05-25T07:36:31.662Z,53.9
2018-05-25T07:37:20.609Z,54.1
2018-05-25T07:38:11.807Z,54.3
2018-05-25T07:39:01.065Z,54.4
2018-05-25T07:39:51.386Z,54.5
2018-05-25T07:40:41.726Z,54.6
2018-05-25T07:41:31.533Z,54.6
2018-05-25T07:42:21.572Z,54.8
2018-05-25T07:43:11.356Z,54.9
2018-05-25T07:44:01.993Z,55.1
2018-05-25T07:44:52.333Z,55.3
2018-05-25T07:45:41.011Z,55.4
2018-05-25T07:46:32.226Z,55.6
2018-05-25T07:47:22.336Z,55.8
2018-05-25T07:48:12.089Z,56
2018-05-25T07:49:02.093Z,56.1
2018-05-25T07:49:52.123Z,56.3
2018-05-25T07:50:42.195Z,56.4
2018-05-25T07:51:31.983Z,56.6
2018-05-25T07:52:22.597Z,56.8
2018-05-25T07:53:12.949Z,56.9
2018-05-25T07:54:02.757Z,57
2018-05-25T07:54:53.069Z,57.1
2018-05-25T07:55:42.570Z,57.3
2018-05-25T07:56:32.967Z,57.4
2018-05-25T07:57:23.273Z,57.6
2018-05-25T07:58:13.369Z,57.6
2018-05-25T07:59:03.403Z,57.8
2018-05-25T07:59:53.486Z,57.9
2018-05-25T08:00:42.516Z,58.1
2018-05-25T08:01:33.588Z,58.2
2018-05-25T08:02:22.519Z,58.3
2018-05-25T08:03:13.760Z,58.4
2018-05-25T08:04:53.552Z,58.7
2018-05-25T08:05:43.979Z,58.8
2018-05-25T08:06:34.019Z,58.9
2018-05-25T08:07:23.492Z,59
2018-05-25T08:08:13.829Z,59.1
2018-05-25T08:09:03.919Z,59.3
2018-05-25T08:09:53.952Z,59.4
2018-05-25T08:10:43.505Z,59.5
2018-05-25T08:11:34.081Z,59.6
2018-05-25T08:12:23.937Z,59.8
2018-05-25T08:13:14.527Z,59.9
2018-05-25T08:14:04.298Z,60
2018-05-25T08:14:54.136Z,60.1
2018-05-25T08:15:43.938Z,60.2
2018-05-25T08:16:33.914Z,60.3
2018-05-25T08:17:23.974Z,60.4
2018-05-25T08:18:14.083Z,60.5
2018-05-25T08:19:04.435Z,60.6
2018-05-25T08:19:53.891Z,60.7
2018-05-25T08:20:44.808Z,60.8
2018-05-25T08:21:34.595Z,60.9
2018-05-25T08:22:23.908Z,61
2018-05-25T08:23:14.188Z,61.1
2018-05-25T08:24:05.378Z,61.2
2018-05-25T08:24:55.428Z,61.3
2018-05-25T08:25:44.976Z,61.4
2018-05-25T08:26:34.743Z,61.5
2018-05-25T08:27:25.348Z,61.6
2018-05-25T08:28:15.125Z,61.7
2018-05-25T08:29:05.480Z,61.8
2018-05-25T08:29:55.318Z,61.8
2018-05-25T08:30:45.304Z,61.9
2018-05-25T08:31:34.329Z,61.9
2018-05-25T08:32:25.182Z,62.1
2018-05-25T08:33:15.500Z,62.1
2018-05-25T08:34:05.610Z,62.2
2018-05-25T08:34:55.625Z,62.3
2018-05-25T08:35:45.675Z,62.3
2018-05-25T08:36:35.595Z,62.4
2018-05-25T08:37:25.849Z,62.5
2018-05-25T08:38:16.497Z,62.6
2018-05-25T08:39:06.276Z,62.6
2018-05-25T08:39:56.132Z,62.8
2018-05-25T08:40:46.363Z,62.8
2018-05-25T08:41:36.113Z,63
2018-05-25T08:42:26.729Z,63.1
2018-05-25T08:43:17.250Z,63.2
2018-05-25T08:44:06.424Z,63.3
2018-05-25T08:44:56.726Z,63.3
2018-05-25T08:45:45.899Z,63.4
2018-05-25T08:46:37.120Z,63.5
2018-05-25T08:47:26.885Z,63.6
2018-05-25T08:48:16.598Z,63.7
2018-05-25T08:49:07.435Z,63.8
2018-05-25T08:49:56.333Z,63.8
2018-05-25T08:50:47.221Z,63.9
2018-05-25T08:51:37.226Z,64.1
2018-05-25T08:52:26.992Z,64.1
2018-05-25T08:53:16.042Z,64.3
2018-05-25T08:54:07.820Z,64.4
2018-05-25T08:54:57.527Z,64.5
2018-05-25T08:55:47.039Z,64.6
2018-05-25T08:56:37.021Z,64.7
2018-05-25T08:57:27.403Z,64.8
2018-05-25T08:58:17.725Z,64.9
2018-05-25T08:59:07.819Z,65
2018-05-25T08:59:57.631Z,65.1
2018-05-25T09:00:47.454Z,65.1
2018-05-25T09:01:37.759Z,65.2
2018-05-25T09:02:28.078Z,65.2
2018-05-25T09:03:17.864Z,65.3
2018-05-25T09:04:08.236Z,65.3
2018-05-25T09:04:58.264Z,65.3
2018-05-25T09:05:48.322Z,65.2
2018-05-25T09:06:38.677Z,65.1
2018-05-25T09:07:28.769Z,65.1
2018-05-25T09:08:18.550Z,65.3
2018-05-25T09:09:08.346Z,65.5
2018-05-25T09:09:58.396Z,65.6
2018-05-25T09:10:48.434Z,65.8
2018-05-25T09:11:38.819Z,65.9
2018-05-25T09:12:29.577Z,65.9
2018-05-25T09:13:19.243Z,66.1
2018-05-25T09:14:09.041Z,66.1
2018-05-25T09:14:58.537Z,66.3
2018-05-25T09:15:49.069Z,66.4
2018-05-25T09:16:38.098Z,66.5
2018-05-25T09:17:29.029Z,66.6
2018-05-25T09:18:19.307Z,66.6
2018-05-25T09:19:09.388Z,66.7
2018-05-25T09:19:59.153Z,66.8
2018-05-25T09:20:49.209Z,66.8
2018-05-25T09:21:40.377Z,66.9
2018-05-25T09:22:29.359Z,67.1
2018-05-25T09:23:19.394Z,67.1
2018-05-25T09:24:09.476Z,67.2
2018-05-25T09:24:59.277Z,67.3
2018-05-25T09:25:49.882Z,67.3
2018-05-25T09:26:40.183Z,67.4
2018-05-25T09:27:28.899Z,67.5
2018-05-25T09:28:20.413Z,67.6
2018-05-25T09:29:09.064Z,67.7
2018-05-25T09:29:59.493Z,67.8
2018-05-25T09:30:50.862Z,67.8
2018-05-25T09:31:40.042Z,67.9
2018-05-25T09:32:30.650Z,68
2018-05-25T09:33:19.987Z,68.1
2018-05-25T09:34:10.560Z,68.2
2018-05-25T09:34:59.991Z,68.3
2018-05-25T09:35:50.667Z,68.4
2018-05-25T09:36:40.174Z,68.6
2018-05-25T09:37:30.226Z,68.7
2018-05-25T09:38:20.883Z,68.8
2018-05-25T09:39:10.668Z,68.9
2018-05-25T09:40:00.981Z,69.1
2018-05-25T09:40:51.340Z,68.9
2018-05-25T09:41:40.573Z,68.6
2018-05-25T09:42:31.478Z,68.6
2018-05-25T09:43:21.372Z,68.8
2018-05-25T09:44:11.308Z,69.2
2018-05-25T09:45:01.077Z,69.4
2018-05-25T09:45:51.074Z,69.6
2018-05-25T09:46:41.792Z,69.8
2018-05-25T09:47:31.288Z,69.8
2018-05-25T09:48:21.608Z,69.8
2018-05-25T09:49:11.410Z,69.4
2018-05-25T09:50:01.182Z,68.3
2018-05-25T09:50:52.093Z,66.8
2018-05-25T09:51:42.178Z,65.5
2018-05-25T09:52:32.251Z,64.8
2018-05-25T09:53:22.297Z,64.3
2018-05-25T09:54:12.077Z,64
2018-05-25T09:55:01.882Z,63.8
2018-05-25T09:55:52.492Z,64
2018-05-25T09:56:41.698Z,64.9
2018-05-25T09:57:32.331Z,66.2
2018-05-25T09:58:22.694Z,67.3
2018-05-25T09:59:11.946Z,67.9
2018-05-25T10:00:02.551Z,68.3
2018-05-25T10:00:52.655Z,68.6
2018-05-25T10:01:42.665Z,69
2018-05-25T10:02:32.975Z,69.4
2018-05-25T10:03:22.512Z,69.7
2018-05-25T10:04:12.882Z,69.9
2018-05-25T10:05:02.679Z,70.1
2018-05-25T10:05:53.087Z,70.3
2018-05-25T10:06:42.867Z,70.4
2018-05-25T10:07:32.803Z,70.6
2018-05-25T10:08:23.191Z,70.6
2018-05-25T10:09:12.993Z,70.6
2018-05-25T10:10:03.031Z,70.3
2018-05-25T10:10:52.818Z,69.4
2018-05-25T10:11:43.488Z,68.6
2018-05-25T10:12:33.219Z,68.6
2018-05-25T10:13:23.329Z,69.3
2018-05-25T10:14:13.381Z,69.8
2018-05-25T10:15:04.002Z,69.7
2018-05-25T10:15:53.766Z,69.6
2018-05-25T10:16:44.136Z,69.2
2018-05-25T10:17:33.343Z,68.3
2018-05-25T10:18:23.983Z,67.5
2018-05-25T10:19:13.731Z,67.8
2018-05-25T10:20:03.834Z,68.7
2018-05-25T10:20:53.962Z,69.7
2018-05-25T10:21:44.491Z,70.3
2018-05-25T10:22:34.004Z,70.6
2018-05-25T10:23:24.633Z,70.8
2018-05-25T10:24:14.196Z,70.9
2018-05-25T10:25:04.750Z,71.2
2018-05-25T10:25:54.268Z,71.4
2018-05-25T10:26:43.766Z,70.8
2018-05-25T10:27:34.664Z,69.4
2018-05-25T10:28:24.485Z,68
2018-05-25T10:29:15.019Z,66.9
2018-05-25T10:30:04.302Z,66.8
2018-05-25T10:30:55.202Z,67.5
2018-05-25T10:31:43.370Z,68.8
2018-05-25T10:32:34.292Z,69.8
2018-05-25T10:33:25.378Z,70.3
2018-05-25T10:34:15.223Z,70.5
2018-05-25T10:35:05.853Z,70.7
2018-05-25T10:35:55.580Z,70.9
2018-05-25T10:36:45.090Z,71.2
2018-05-25T10:37:35.720Z,71.4
2018-05-25T10:38:25.794Z,71.7
2018-05-25T10:39:14.737Z,71.8
2018-05-25T10:40:05.124Z,71.8
2018-05-25T10:40:55.805Z,70.8
2018-05-25T10:41:46.084Z,69.9
2018-05-25T10:42:36.095Z,69.3
2018-05-25T10:43:25.874Z,68.9
2018-05-25T10:44:15.986Z,68.6
2018-05-25T10:45:05.761Z,68.5
2018-05-25T10:45:55.795Z,68.9
2018-05-25T10:46:46.150Z,69.7
2018-05-25T10:47:36.179Z,70.5
2018-05-25T10:48:26.384Z,70.9
2018-05-25T10:49:15.202Z,71.2
2018-05-25T10:50:06.169Z,71.4
2018-05-25T10:50:56.437Z,71.6
2018-05-25T10:51:46.252Z,71.8
2018-05-25T10:52:36.599Z,72.1
2018-05-25T10:53:26.396Z,72.3
2018-05-25T10:54:17.033Z,72.4
2018-05-25T10:55:07.088Z,72.4
2018-05-25T10:55:57.153Z,72.1
2018-05-25T10:56:46.654Z,72
2018-05-25T10:57:36.394Z,72.1
2018-05-25T10:58:26.310Z,72.4
2018-05-25T10:59:16.854Z,72.6
2018-05-25T11:00:06.982Z,72.8
2018-05-25T11:00:57.274Z,72.8
2018-05-25T11:01:47.045Z,72.9
2018-05-25T11:02:36.815Z,73
2018-05-25T11:03:27.190Z,73.1
2018-05-25T11:04:16.441Z,73.2
2018-05-25T11:05:07.600Z,73.2
2018-05-25T11:05:57.069Z,73.3
2018-05-25T11:06:47.687Z,73.3
2018-05-25T11:07:38.052Z,73.4
2018-05-25T11:08:27.228Z,73.4
2018-05-25T11:09:17.601Z,73.5
2018-05-25T11:10:08.050Z,73.6
2018-05-25T11:10:57.438Z,73.7
2018-05-25T11:11:47.837Z,73.8
2018-05-25T11:12:38.411Z,73.9
2018-05-25T11:13:28.263Z,73.9
2018-05-25T11:14:18.555Z,74.1
2018-05-25T11:15:08.359Z,74.1
2018-05-25T11:15:58.671Z,74.1
2018-05-25T11:16:48.463Z,74.1
2018-05-25T11:17:38.293Z,74.2
2018-05-25T11:18:28.593Z,74.2
2018-05-25T11:19:18.662Z,74.2
2018-05-25T11:20:08.198Z,74.3
2018-05-25T11:20:58.878Z,74.3
2018-05-25T11:21:49.216Z,74.3
2018-05-25T11:22:39.210Z,74.3
2018-05-25T11:23:29.289Z,74.3
2018-05-25T11:24:18.802Z,74.3
2018-05-25T11:25:08.561Z,74.3
2018-05-25T11:25:59.181Z,74.4
2018-05-25T11:26:49.010Z,74.4
2018-05-25T11:27:39.625Z,74.4
2018-05-25T11:28:29.656Z,74.4
2018-05-25T11:29:19.423Z,74.4
2018-05-25T11:30:09.241Z,74.5
2018-05-25T11:30:59.281Z,74.6
2018-05-25T11:31:49.928Z,74.7
2018-05-25T11:32:39.418Z,74.8
2018-05-25T11:33:29.195Z,74.8
2018-05-25T11:34:19.626Z,74.8
2018-05-25T11:35:10.233Z,74.9
2018-05-25T11:35:59.982Z,74.9
2018-05-25T11:36:49.472Z,74.9
2018-05-25T11:37:40.096Z,74.8
2018-05-25T11:38:30.222Z,74.4
2018-05-25T11:39:19.669Z,74.3
2018-05-25T11:40:10.035Z,74.4
2018-05-25T11:40:59.797Z,74.7
2018-05-25T11:41:50.155Z,74.9
2018-05-25T11:42:40.243Z,74.9
2018-05-25T11:43:29.975Z,75
2018-05-25T11:44:20.913Z,75
2018-05-25T11:45:10.682Z,75
2018-05-25T11:46:00.494Z,75.1
2018-05-25T11:46:50.802Z,75.1
2018-05-25T11:47:40.325Z,75.1
2018-05-25T11:48:30.679Z,75.1
2018-05-25T11:49:21.290Z,75.1
2018-05-25T11:50:10.804Z,75.2
2018-05-25T11:51:01.444Z,75.2
2018-05-25T11:51:50.904Z,75.3
2018-05-25T11:52:41.269Z,75.3
2018-05-25T11:53:30.469Z,75.4
2018-05-25T11:54:21.115Z,75.4
2018-05-25T11:55:11.446Z,75.4
2018-05-25T11:56:01.809Z,75.4
2018-05-25T11:56:51.976Z,75.4
2018-05-25T11:57:41.957Z,75.5
2018-05-25T11:58:31.155Z,75.5
2018-05-25T11:59:21.225Z,75.5
2018-05-25T12:00:11.572Z,74.8
2018-05-25T12:01:02.188Z,73.9
2018-05-25T12:01:52.482Z,73.5
2018-05-25T12:02:41.762Z,73.1
2018-05-25T12:03:31.847Z,73
2018-05-25T12:04:22.161Z,73.4
2018-05-25T12:05:11.975Z,73.9
2018-05-25T12:06:02.592Z,74.4
2018-05-25T12:06:52.104Z,74.6
2018-05-25T12:07:42.405Z,74.6
2018-05-25T12:08:31.913Z,73.8
2018-05-25T12:09:22.599Z,72.8
2018-05-25T12:10:12.647Z,71.9
2018-05-25T12:11:03.004Z,71.3
2018-05-25T12:11:52.777Z,71.4
2018-05-25T12:12:41.985Z,71.9
2018-05-25T12:13:32.884Z,72.7
2018-05-25T12:14:23.208Z,73.3
2018-05-25T12:15:13.028Z,73.5
2018-05-25T12:16:03.059Z,73.6
2018-05-25T12:16:53.152Z,73.7
2018-05-25T12:17:43.177Z,73.8
2018-05-25T12:18:33.283Z,74
2018-05-25T12:19:23.574Z,73.6
2018-05-25T12:20:13.442Z,73.3
2018-05-25T12:21:03.490Z,73.3
2018-05-25T12:21:53.557Z,73.3
2018-05-25T12:22:43.325Z,73.3
2018-05-25T12:23:33.924Z,73.3
2018-05-25T12:24:24.002Z,73.3
2018-05-25T12:25:13.250Z,73.4
2018-05-25T12:26:01.661Z,73.4
2018-05-25T12:26:52.291Z,73.3
2018-05-25T12:27:42.330Z,73.2
2018-05-25T12:28:32.430Z,73.1
2018-05-25T12:29:21.890Z,72.8
2018-05-25T12:30:12.229Z,72.5
2018-05-25T12:31:02.609Z,72.2
2018-05-25T12:31:52.403Z,71.9
2018-05-25T12:32:41.609Z,71.8
2018-05-25T12:33:32.021Z,71.7
2018-05-25T12:34:22.593Z,71.6
2018-05-25T12:35:12.644Z,71.6
2018-05-25T12:36:03.011Z,71.6
2018-05-25T12:36:52.508Z,71.7
2018-05-25T12:37:42.742Z,71.8
2018-05-25T12:38:32.920Z,71.8
2018-05-25T12:39:23.215Z,71.8
2018-05-25T12:40:13.288Z,71.9
2018-05-25T12:41:03.364Z,71.9
2018-05-25T12:41:53.434Z,71.8
2018-05-25T12:42:43.543Z,71.7
2018-05-25T12:43:33.319Z,71.5
2018-05-25T12:44:23.638Z,71.4
2018-05-25T12:45:13.682Z,71.3
2018-05-25T12:46:03.530Z,71.3
2018-05-25T12:46:53.839Z,71.4
2018-05-25T12:47:43.654Z,71.4
2018-05-25T12:48:33.933Z,71.6
2018-05-25T12:49:23.757Z,71.6
2018-05-25T12:50:13.803Z,71.8
2018-05-25T12:51:04.164Z,71.9
2018-05-25T12:51:53.948Z,72
2018-05-25T12:52:44.008Z,72.1
2018-05-25T12:53:33.803Z,72.3
2018-05-25T12:54:25.858Z,72.3
2018-05-25T12:55:16.113Z,72.4
2018-05-25T12:56:06.238Z,72.5
2018-05-25T12:56:56.526Z,72.6
2018-05-25T12:57:46.028Z,72.8
2018-05-25T12:58:36.649Z,72.8
2018-05-25T12:59:26.750Z,72.8
2018-05-25T13:00:16.764Z,72.9
2018-05-25T13:01:06.555Z,72.9
2018-05-25T13:01:56.908Z,73
2018-05-25T13:02:46.977Z,73.1
2018-05-25T13:03:37.065Z,73.1
2018-05-25T13:04:27.084Z,73.2
2018-05-25T13:05:17.197Z,73.2
2018-05-25T13:06:06.951Z,73.1
2018-05-25T13:06:57.273Z,73.1
2018-05-25T13:07:47.404Z,73.1
2018-05-25T13:08:37.158Z,73
2018-05-25T13:09:26.465Z,72.9
2018-05-25T13:10:17.262Z,72.9
2018-05-25T13:11:05.431Z,72.8
2018-05-25T13:11:55.484Z,72.6
2018-05-25T13:12:44.968Z,72.3
2018-05-25T13:13:35.594Z,72.1
2018-05-25T13:14:25.672Z,71.8
2018-05-25T13:15:15.743Z,71.6
2018-05-25T13:16:05.778Z,71.3
2018-05-25T13:16:56.156Z,70.9
2018-05-25T13:17:46.193Z,70.4
2018-05-25T13:18:36.304Z,69.9
2018-05-25T13:19:26.087Z,69.6
2018-05-25T13:20:16.223Z,69.3
2018-05-25T13:21:06.449Z,69.1
2018-05-25T13:21:56.568Z,68.8
2018-05-25T13:22:46.356Z,68.6
2018-05-25T13:23:36.663Z,68.4
2018-05-25T13:24:26.755Z,68.3
2018-05-25T13:25:16.792Z,68.1
2018-05-25T13:26:06.877Z,67.8
2018-05-25T13:26:56.664Z,67.6
2018-05-25T13:27:46.726Z,67.5
2018-05-25T13:28:37.018Z,67.3
2018-05-25T13:29:27.121Z,67.2
2018-05-25T13:30:16.885Z,67
2018-05-25T13:31:06.717Z,66.9
2018-05-25T13:31:57.016Z,66.8
2018-05-25T13:32:47.100Z,66.7
2018-05-25T13:33:36.868Z,66.5
2018-05-25T13:34:27.214Z,66.4
2018-05-25T13:35:17.309Z,66.3
2018-05-25T13:36:07.342Z,66.1
2018-05-25T13:36:57.403Z,66
2018-05-25T13:37:46.949Z,65.9
2018-05-25T13:38:37.527Z,65.8
2018-05-25T13:39:27.982Z,65.6
2018-05-25T13:40:17.944Z,65.6
2018-05-25T13:41:07.459Z,65.4
2018-05-25T13:41:57.506Z,65.3
2018-05-25T13:42:48.156Z,65.3
2018-05-25T13:43:37.939Z,65.1
2018-05-25T13:44:28.276Z,65.1
2018-05-25T13:45:18.066Z,64.9
2018-05-25T13:46:08.114Z,64.9
2018-05-25T13:46:58.196Z,64.8
2018-05-25T13:47:48.540Z,64.8
2018-05-25T13:48:38.589Z,64.7
2018-05-25T13:49:28.353Z,64.6
2018-05-25T13:50:18.733Z,64.6
2018-05-25T13:51:08.519Z,64.5
2018-05-25T13:51:58.305Z,64.4
2018-05-25T13:52:48.957Z,64.4
2018-05-25T13:53:38.687Z,64.4
2018-05-25T13:54:28.500Z,64.3
2018-05-25T13:55:19.120Z,64.3
2018-05-25T13:56:08.904Z,64.3
2018-05-25T13:56:58.690Z,64.4
2018-05-25T13:57:49.309Z,64.3
2018-05-25T13:58:39.908Z,64.3
2018-05-25T13:59:29.139Z,64.2
2018-05-25T14:00:19.213Z,64.1
2018-05-25T14:01:09.552Z,63.9
2018-05-25T14:01:59.602Z,63.7
2018-05-25T14:02:49.430Z,63.6
2018-05-25T14:03:39.741Z,63.4
2018-05-25T14:04:29.603Z,63.2
2018-05-25T14:05:19.037Z,63.1
2018-05-25T14:06:10.102Z,62.9
2018-05-25T14:07:00.034Z,62.8
2018-05-25T14:07:49.801Z,62.7
2018-05-25T14:08:40.145Z,62.6
2018-05-25T14:09:29.925Z,62.6
2018-05-25T14:10:19.729Z,62.5
2018-05-25T14:11:10.066Z,62.4
2018-05-25T14:11:59.832Z,62.3
2018-05-25T14:12:49.966Z,62.2
2018-05-25T14:13:40.524Z,62.1
2018-05-25T14:14:30.301Z,62
2018-05-25T14:15:20.098Z,61.9
2018-05-25T14:16:10.427Z,61.8
2018-05-25T14:16:59.996Z,61.6
2018-05-25T14:17:50.835Z,61.6
2018-05-25T14:18:40.886Z,61.4
2018-05-25T14:19:31.009Z,61.3
2018-05-25T14:20:20.458Z,61.2
2018-05-25T14:21:11.112Z,61.1
2018-05-25T14:22:00.621Z,61
2018-05-25T14:22:50.683Z,60.9
2018-05-25T14:23:41.006Z,60.8
2018-05-25T14:24:30.786Z,60.6
2018-05-25T14:25:21.134Z,60.5
2018-05-25T14:26:11.231Z,60.4
2018-05-25T14:27:01.289Z,60.3
2018-05-25T14:27:51.636Z,60.2
2018-05-25T14:28:41.729Z,60.1
2018-05-25T14:29:31.744Z,60
2018-05-25T14:30:21.811Z,59.9
2018-05-25T14:31:11.601Z,59.8
2018-05-25T14:32:01.671Z,59.7
2018-05-25T14:32:51.459Z,59.6
2018-05-25T14:33:41.781Z,59.4
2018-05-25T14:34:31.843Z,59.3
2018-05-25T14:35:21.320Z,59.2
2018-05-25T14:36:12.246Z,58.9
2018-05-25T14:37:02.042Z,58.3
2018-05-25T14:38:41.669Z,57.2
2018-05-25T14:39:32.504Z,56.6
2018-05-25T14:40:22.332Z,56.1
2018-05-25T14:41:12.405Z,55.7
2018-05-25T14:42:02.411Z,55.2
2018-05-25T14:42:52.785Z,54.8
2018-05-25T14:43:41.996Z,54.4
2018-05-25T14:44:32.616Z,54.1
2018-05-25T14:45:22.949Z,53.9
2018-05-25T14:46:12.215Z,53.8
2018-05-25T14:47:02.845Z,53.6
2018-05-25T14:47:53.124Z,53.4
2018-05-25T14:48:43.197Z,53.3
2018-05-25T14:49:32.985Z,53.1
2018-05-25T14:50:22.272Z,52.9
2018-05-25T14:51:13.182Z,52.8
2018-05-25T14:52:02.931Z,52.6
2018-05-25T14:52:53.271Z,52.5
2018-05-25T14:54:32.849Z,52.3
2018-05-25T14:55:23.167Z,52.2
2018-05-25T14:56:13.827Z,52.1
2018-05-25T14:57:54.198Z,51.8
2018-05-25T14:58:43.687Z,51.8
2018-05-25T14:59:34.035Z,51.7
2018-05-25T15:00:23.018Z,51.6
2018-05-25T15:01:13.628Z,51.5
2018-05-25T15:02:03.941Z,51.4
2018-05-25T15:02:54.322Z,51.3
2018-05-25T15:03:44.368Z,51.3
2018-05-25T15:04:34.139Z,51.2
2018-05-25T15:05:23.917Z,51.1
2018-05-25T15:06:14.324Z,51.1
2018-05-25T15:07:04.633Z,51
2018-05-25T15:07:54.697Z,50.9
2018-05-25T15:08:44.264Z,50.9
2018-05-25T15:09:34.822Z,50.8
2018-05-25T15:10:24.610Z,50.8
2018-05-25T15:11:14.920Z,50.8
2018-05-25T15:12:04.772Z,50.7
2018-05-25T15:12:54.514Z,50.6
2018-05-25T15:13:45.117Z,50.6
2018-05-25T15:14:35.171Z,50.6
2018-05-25T15:15:25.245Z,50.5
2018-05-25T15:16:14.184Z,50.4
2018-05-25T15:17:05.207Z,50.4
2018-05-25T15:17:55.170Z,50.4
2018-05-25T15:18:45.233Z,50.3
2018-05-25T15:19:35.019Z,50.3
2018-05-25T15:20:24.222Z,50.3
2018-05-25T15:21:15.482Z,50.3
2018-05-25T15:22:05.488Z,50.2
2018-05-25T15:22:55.850Z,50.1
2018-05-25T15:23:46.069Z,50.1
2018-05-25T15:24:35.986Z,50.1
2018-05-25T15:25:25.721Z,50.1
2018-05-25T15:26:16.099Z,50
2018-05-25T15:27:06.150Z,50
2018-05-25T15:27:55.922Z,49.9
2018-05-25T15:28:45.979Z,49.9
2018-05-25T15:29:36.749Z,49.9
2018-05-25T15:30:26.385Z,49.9
2018-05-25T15:31:16.495Z,49.8
2018-05-25T15:32:07.222Z,49.8
2018-05-25T15:32:56.312Z,49.8
2018-05-25T15:33:46.424Z,49.8
2018-05-25T15:34:36.158Z,49.8
2018-05-25T15:35:26.779Z,49.7
2018-05-25T15:36:16.836Z,49.7
2018-05-25T15:37:06.888Z,49.7
2018-05-25T15:37:56.677Z,49.6
2018-05-25T15:38:46.758Z,49.6
2018-05-25T15:39:36.838Z,49.6
2018-05-25T15:40:26.883Z,49.6
2018-05-25T15:41:17.209Z,49.6
2018-05-25T15:42:06.726Z,49.6
2018-05-25T15:42:57.066Z,49.6
2018-05-25T15:43:46.869Z,49.6
2018-05-25T15:44:36.904Z,49.6
2018-05-25T15:45:27.031Z,49.5
2018-05-25T15:46:17.602Z,49.5
2018-05-25T15:47:07.679Z,49.5
2018-05-25T15:47:56.890Z,49.4
2018-05-25T15:48:47.550Z,49.4
2018-05-25T15:49:37.842Z,49.4
2018-05-25T15:50:27.910Z,49.4
2018-05-25T15:51:18.035Z,49.4
2018-05-25T15:52:08.053Z,49.4
2018-05-25T15:52:57.905Z,49.3
2018-05-25T15:53:48.261Z,49.3
2018-05-25T15:54:38.002Z,49.3
2018-05-25T15:55:28.305Z,49.3
2018-05-25T15:56:18.484Z,49.3
2018-05-25T15:57:08.428Z,49.3
2018-05-25T15:57:57.978Z,49.2
2018-05-25T15:58:48.308Z,49.2
2018-05-25T15:59:38.640Z,49.1
2018-05-25T16:00:28.687Z,49.1
2018-05-25T16:01:18.510Z,49.1
2018-05-25T16:02:09.028Z,49.1
2018-05-25T16:02:58.628Z,49.1
2018-05-25T16:03:48.109Z,49
2018-05-25T16:04:39.027Z,49
2018-05-25T16:05:29.105Z,49
2018-05-25T16:06:19.196Z,48.9
2018-05-25T16:07:08.956Z,48.9
2018-05-25T16:07:59.323Z,48.9
2018-05-25T16:08:49.978Z,48.9
2018-05-25T16:09:39.423Z,48.8
2018-05-25T16:10:29.480Z,48.8
2018-05-25T16:11:19.255Z,48.8
2018-05-25T16:12:09.588Z,48.8
2018-05-25T16:12:58.844Z,48.8
2018-05-25T16:13:49.729Z,48.7
2018-05-25T16:14:39.790Z,48.7
2018-05-25T16:15:29.549Z,48.7
2018-05-25T16:16:19.940Z,48.6
2018-05-25T16:17:09.562Z,48.6
2018-05-25T16:18:00.075Z,48.6
2018-05-25T16:18:49.909Z,48.6
2018-05-25T16:19:39.919Z,48.6
2018-05-25T16:20:30.300Z,48.5
2018-05-25T16:21:20.089Z,48.5
2018-05-25T16:22:09.812Z,48.5
2018-05-25T16:23:00.455Z,48.4
2018-05-25T16:23:50.490Z,48.4
2018-05-25T16:24:40.527Z,48.4
2018-05-25T16:25:30.657Z,48.4
2018-05-25T16:26:20.687Z,48.4
2018-05-25T16:27:10.471Z,48.4
2018-05-25T16:28:00.853Z,48.3
2018-05-25T16:28:51.238Z,48.3
2018-05-25T16:29:40.670Z,48.3
2018-05-25T16:30:30.459Z,48.3
2018-05-25T16:31:21.074Z,48.3
2018-05-25T16:32:11.179Z,48.3
2018-05-25T16:33:01.212Z,48.2
2018-05-25T16:33:50.973Z,48.2
2018-05-25T16:34:41.069Z,48.2
2018-05-25T16:35:31.115Z,48.1
2018-05-25T16:36:20.896Z,48.1
2018-05-25T16:37:11.545Z,48.1
2018-05-25T16:38:01.592Z,48.1
2018-05-25T16:38:51.091Z,48.1
2018-05-25T16:39:41.455Z,48.1
2018-05-25T16:40:30.678Z,48
2018-05-25T16:41:21.854Z,48
2018-05-25T16:42:11.613Z,47.9
2018-05-25T16:43:01.691Z,48
2018-05-25T16:43:52.034Z,47.9
2018-05-25T16:44:42.095Z,47.9
2018-05-25T16:45:31.859Z,47.9
2018-05-25T16:46:22.237Z,47.9
2018-05-25T16:47:12.010Z,47.8
2018-05-25T16:48:02.346Z,47.8
2018-05-25T16:48:52.126Z,47.8
2018-05-25T16:49:42.206Z,47.8
2018-05-25T16:50:32.535Z,47.8
2018-05-25T16:51:22.325Z,47.8
2018-05-25T16:52:12.682Z,47.8
2018-05-25T16:53:02.722Z,47.8
2018-05-25T16:53:52.797Z,47.7
2018-05-25T16:54:41.752Z,47.7
2018-05-25T16:55:32.901Z,47.7
2018-05-25T16:56:22.991Z,47.6
2018-05-25T16:57:12.804Z,47.6
2018-05-25T16:58:02.594Z,47.6
2018-05-25T16:58:53.808Z,47.6
2018-05-25T16:59:43.246Z,47.6
2018-05-25T17:00:33.097Z,47.6
2018-05-25T17:01:22.862Z,47.6
2018-05-25T17:02:13.210Z,47.5
2018-05-25T17:03:03.514Z,47.5
2018-05-25T17:03:53.582Z,47.5
2018-05-25T17:04:43.614Z,47.5
2018-05-25T17:05:33.739Z,47.4
2018-05-25T17:06:23.745Z,47.4
2018-05-25T17:07:13.568Z,47.4
2018-05-25T17:08:03.338Z,47.4
2018-05-25T17:08:53.670Z,47.4
2018-05-25T17:09:44.024Z,47.4
2018-05-25T17:10:33.792Z,47.4
2018-05-25T17:11:24.126Z,47.4
2018-05-25T17:12:14.245Z,47.4
2018-05-25T17:13:03.985Z,47.3
2018-05-25T17:13:54.307Z,47.3
2018-05-25T17:14:44.369Z,47.3
2018-05-25T17:15:33.906Z,47.3
2018-05-25T17:16:24.267Z,47.3
2018-05-25T17:17:14.576Z,47.3
2018-05-25T17:18:04.655Z,47.3
2018-05-25T17:18:54.148Z,47.3
2018-05-25T17:19:44.761Z,47.3
2018-05-25T17:20:34.276Z,47.2
2018-05-25T17:21:24.657Z,47.2
2018-05-25T17:22:14.971Z,47.2
2018-05-25T17:23:04.792Z,47.2
2018-05-25T17:23:54.542Z,47.2
2018-05-25T17:24:44.902Z,47.1
2018-05-25T17:25:34.706Z,47.1
2018-05-25T17:26:25.034Z,47.1
2018-05-25T17:27:15.364Z,47.1
2018-05-25T17:28:05.489Z,47.1
2018-05-25T17:28:54.917Z,47.1
2018-05-25T17:29:45.544Z,47.1
2018-05-25T17:30:35.907Z,47.1
2018-05-25T17:31:25.531Z,47.1
2018-05-25T17:32:15.716Z,47
2018-05-25T17:33:05.554Z,47
2018-05-25T17:33:55.597Z,47
2018-05-25T17:34:45.635Z,47
2018-05-25T17:35:35.433Z,47
2018-05-25T17:36:25.776Z,47
2018-05-25T17:37:15.589Z,46.9
2018-05-25T17:38:05.627Z,46.9
2018-05-25T17:38:56.257Z,46.9
2018-05-25T17:39:46.037Z,46.9
2018-05-25T17:40:36.095Z,46.9
2018-05-25T17:41:26.452Z,46.9
2018-05-25T17:42:16.981Z,46.9
2018-05-25T17:43:06.571Z,46.9
2018-05-25T17:43:56.644Z,46.9
2018-05-25T17:44:46.434Z,46.9
2018-05-25T17:45:36.766Z,46.8
2018-05-25T17:46:26.863Z,46.8
2018-05-25T17:47:16.925Z,46.8
2018-05-25T17:48:06.980Z,46.8
2018-05-25T17:48:56.505Z,46.8
2018-05-25T17:49:46.241Z,46.8
2018-05-25T17:50:37.122Z,46.8
2018-05-25T17:51:26.974Z,46.8
2018-05-25T17:52:17.121Z,46.7
2018-05-25T17:53:06.788Z,46.7
2018-05-25T17:53:57.208Z,46.6
2018-05-25T17:54:46.968Z,46.6
2018-05-25T17:55:37.589Z,46.6
2018-05-25T17:56:26.771Z,46.6
2018-05-25T17:57:16.848Z,46.5
2018-05-25T17:58:06.593Z,46.5
2018-05-25T17:58:57.499Z,46.4
2018-05-25T17:59:47.572Z,46.4
2018-05-25T18:00:37.339Z,46.3
2018-05-25T18:01:27.957Z,46.3
2018-05-25T18:02:17.769Z,46.3
2018-05-25T18:03:08.520Z,46.3
2018-05-25T18:03:58.152Z,46.3
2018-05-25T18:04:47.989Z,46.3
2018-05-25T18:05:38.536Z,46.2
2018-05-25T18:06:28.071Z,46.2
2018-05-25T18:07:18.420Z,46.1
2018-05-25T18:08:08.501Z,46.1
2018-05-25T18:08:58.265Z,46.1
2018-05-25T18:09:48.600Z,46.1
2018-05-25T18:10:38.657Z,46.1
2018-05-25T18:11:27.906Z,46.1
2018-05-25T18:12:18.263Z,46.1
2018-05-25T18:13:08.861Z,46
2018-05-25T18:13:58.357Z,46
2018-05-25T18:14:48.431Z,46
2018-05-25T18:15:38.509Z,45.9
2018-05-25T18:16:28.840Z,45.9
2018-05-25T18:17:18.533Z,45.9
2018-05-25T18:18:08.967Z,45.9
2018-05-25T18:18:59.300Z,45.9
2018-05-25T18:19:48.795Z,45.9
2018-05-25T18:20:38.903Z,45.8
2018-05-25T18:21:29.514Z,45.9
2018-05-25T18:22:19.294Z,45.9
2018-05-25T18:23:09.066Z,45.9
2018-05-25T18:23:59.664Z,45.8
2018-05-25T18:24:49.466Z,45.8
2018-05-25T18:25:38.697Z,45.8
2018-05-25T18:26:29.331Z,45.8
2018-05-25T18:27:19.628Z,45.8
2018-05-25T18:28:10.006Z,45.8
2018-05-25T18:29:00.084Z,45.8
2018-05-25T18:29:49.849Z,45.8
2018-05-25T18:30:40.189Z,45.8
2018-05-25T18:31:29.719Z,45.8
2018-05-25T18:32:19.487Z,45.7
2018-05-25T18:33:09.826Z,45.7
2018-05-25T18:34:00.507Z,45.6
2018-05-25T18:34:50.232Z,45.5
2018-05-25T18:35:39.999Z,45.4
2018-05-25T18:36:30.689Z,45.4
2018-05-25T18:37:20.712Z,45.3
2018-05-25T18:38:10.206Z,45.3
2018-05-25T18:39:00.300Z,45.3
2018-05-25T18:39:50.601Z,45.1
2018-05-25T18:40:40.101Z,45.2
2018-05-25T18:41:30.987Z,45.2